Terminal Aerodrome Forecast
Issued by NWS

Home | Current Version | Previous Version | Text Only | Print | Product List | Glossary On
Versions: 1 2 3 4 5 6 7 8 9 10 11 12 13 14 15 16 17 18 19 20 21 22 23 24 25 26 27 28 29 30 31
000
FTUS46 KPDT 010500
TAFALW
TAF
KALW 010521Z 0106/0206 15007KT 5SM BR OVC015
     FM011000 00000KT 5SM BR OVC008
      TEMPO 0112/0115 2SM BR OVC006
     FM011800 23008KT P6SM SCT008 OVC015 PROB30 0120/0124 5SM -RA
      OVC008
     FM020200 18008KT P6SM VCSH OVC020=

USA.gov is the U.S. government's official web portal to all federal, state and local government web resources and services.